Time;durP1;ratioP1;P1;durP2;ratioP2;P2;SDS_P1;SDS_P2;PMS_P1;PMS_P2;Temp;Humidity;BMP_temperature;BMP_pressure;BME280_temperature;BME280_humidity;BME280_pressure;Samples;Min_cycle;Max_cycle;Signal;HPM_P1;HPM_P2
2022/01/26 00:07:49;;;;;;;;;;;;;;;;;;5063115;28;19952;-81
2022/01/26 00:10:15;;;;;;;;;;;;;;;;;;5067759;28;19959;-83
2022/01/26 00:12:42;;;;;;;;;;;;;;;;;;5067159;28;20403;-82
2022/01/26 00:15:08;;;;;;;;;;;;;;;;;;5063890;28;19952;-83
2022/01/26 00:17:34;;;;;;;;;;;;;;;;;;5067036;28;20023;-82
2022/01/26 00:20:11;;;;;;;;;;;;;;;;;;5066331;28;19956;-83
2022/01/26 00:38:42;;;;;;;;;;;;;;;;;;5065724;28;21617;-83
2022/01/26 00:41:13;;;;;;;;;;;;;;;;;;5066243;28;19968;-83
2022/01/26 00:43:42;;;;;;;;;;;;;;;;;;5066376;28;19982;-82
2022/01/26 00:46:08;;;;;;;;;;;;;;;;;;5066196;28;19955;-82
2022/01/26 00:48:37;;;;;;;;;;;;;;;;;;5068130;28;19944;-82
2022/01/26 00:51:05;;;;;;;;;;;;;;;;;;5063801;28;19956;-82
2022/01/26 00:53:45;;;;;;;;;;;;;;;;;;5066821;28;20002;-82
2022/01/26 00:56:11;;;;;;;;;;;;;;;;;;5065395;28;20575;-82
2022/01/26 00:58:37;;;;;;;;;;;;;;;;;;5066181;28;20005;-85
2022/01/26 01:01:04;;;;;;;;;;;;;;;;;;5065852;28;19968;-81
2022/01/26 01:03:32;;;;;;;;;;;;;;;;;;5066346;28;20330;-82
2022/01/26 01:06:03;;;;;;;;;;;;;;;;;;5061117;28;19944;-83
2022/01/26 01:08:29;;;;;;;;;;;;;;;;;;5063568;28;21352;-83
2022/01/26 01:10:56;;;;;;;;;;;;;;;;;;5068492;28;19959;-81
2022/01/26 01:13:30;;;;;;;;;;;;;;;;;;5063525;28;19955;-82
2022/01/26 01:15:56;;;;;;;;;;;;;;;;;;5066731;28;19963;-82
2022/01/26 01:31:18;;;;;;;;;;;;;;;;;;5078514;28;19959;-80
2022/01/26 01:33:47;;;;;;;;;;;;;;;;;;5067505;28;19920;-83
2022/01/26 01:36:13;;;;;;;;;;;;;;;;;;5080877;28;20007;-83
2022/01/26 01:38:41;;;;;;;;;;;;;;;;;;5086528;28;19939;-83
2022/01/26 01:41:08;;;;;;;;;;;;;;;;;;5060278;28;20352;-84
2022/01/26 01:43:34;;;;;;;;;;;;;;;;;;5083720;28;19955;-81
2022/01/26 01:46:01;;;;;;;;;;;;;;;;;;5085235;28;19955;-82
2022/01/26 01:48:29;;;;;;;;;;;;;;;;;;5081251;28;20001;-83
2022/01/26 01:50:56;;;;;;;;;;;;;;;;;;5085236;28;19947;-82
2022/01/26 01:53:33;;;;;;;;;;;;;;;;;;5078309;28;19963;-81
2022/01/26 01:56:00;;;;;;;;;;;;;;;;;;5085414;28;19962;-81
2022/01/26 01:58:27;;;;;;;;;;;;;;;;;;5082276;28;19952;-79
2022/01/26 02:00:53;;;;;;;;;;;;;;;;;;5081113;28;20460;-81
2022/01/26 02:03:19;;;;;;;;;;;;;;;;;;5083326;28;20488;-82
2022/01/26 02:05:45;;;;;;;;;;;;;;;;;;5087174;28;20069;-83
2022/01/26 02:08:11;;;;;;;;;;;;;;;;;;5085033;28;20328;-84
2022/01/26 02:10:38;;;;;;;;;;;;;;;;;;5086433;28;19956;-82
2022/01/26 02:13:08;;;;;;;;;;;;;;;;;;5066835;28;19958;-83
2022/01/26 02:15:49;;;;;;;;;;;;;;;;;;5084127;28;19955;-85
2022/01/26 03:01:58;;;;;;;;;;;;;;;;;;5086098;28;20631;-86
2022/01/26 03:10:06;;;;;;;;;;;;;;;;;;5050640;28;20020;-84
2022/01/26 03:12:45;;;;;;;;;;;;;;;;;;5086402;28;19942;-85
2022/01/26 03:15:24;;;;;;;;;;;;;;;;;;5094839;28;20014;-83
2022/01/26 03:20:37;;;;;;;;;;;;;;;;;;5082860;28;22253;-83
2022/01/26 03:34:09;;;;;;;;;;;;;;;;;;5059584;28;19993;-84
2022/01/26 03:36:46;;;;;;;;;;;;;;;;;;5088743;28;19947;-82
2022/01/26 03:39:15;;;;;;;;;;;;;;;;;;5085739;28;21385;-83
2022/01/26 03:41:50;;;;;;;;;;;;;;;;;;5087069;28;19960;-81
2022/01/26 03:44:16;;;;;;;;;;;;;;;;;;5086451;28;19952;-81
2022/01/26 03:46:42;;;;;;;;;;;;;;;;;;5066702;28;21256;-81
2022/01/26 03:49:09;;;;;;;;;;;;;;;;;;5080692;28;19955;-80
2022/01/26 03:51:35;;;;;;;;;;;;;;;;;;5086807;28;19926;-81
2022/01/26 03:54:01;;;;;;;;;;;;;;;;;;5088624;28;19951;-81
2022/01/26 03:56:27;;;;;;;;;;;;;;;;;;5084779;28;19951;-80
2022/01/26 03:58:53;;;;;;;;;;;;;;;;;;5065292;28;20467;-80
2022/01/26 04:01:20;;;;;;;;;;;;;;;;;;5084898;28;19960;-81
2022/01/26 04:03:46;;;;;;;;;;;;;;;;;;5084551;28;19947;-81
2022/01/26 04:06:12;;;;;;;;;;;;;;;;;;5084287;28;19952;-81
2022/01/26 04:08:41;;;;;;;;;;;;;;;;;;5083067;28;19951;-81
2022/01/26 04:13:36;;;;;;;;;;;;;;;;;;5087809;28;19955;-82
2022/01/26 04:16:02;;;;;;;;;;;;;;;;;;5087343;28;19955;-81
2022/01/26 04:18:36;;;;;;;;;;;;;;;;;;5064260;28;21311;-81
2022/01/26 04:21:10;;;;;;;;;;;;;;;;;;5063788;28;19974;-81
2022/01/26 04:26:10;;;;;;;;;;;;;;;;;;5058942;28;19917;-84
2022/01/26 04:28:46;;;;;;;;;;;;;;;;;;5065327;28;19959;-85
2022/01/26 04:31:12;;;;;;;;;;;;;;;;;;5066454;28;19973;-84
2022/01/26 04:33:39;;;;;;;;;;;;;;;;;;5084939;28;19927;-85
2022/01/26 04:36:09;;;;;;;;;;;;;;;;;;5067944;28;20566;-85
2022/01/26 04:38:44;;;;;;;;;;;;;;;;;;5086495;28;19951;-85
2022/01/26 04:44:01;;;;;;;;;;;;;;;;;;5087425;28;19947;-84
2022/01/26 04:46:27;;;;;;;;;;;;;;;;;;5086626;28;19979;-85
2022/01/26 04:48:54;;;;;;;;;;;;;;;;;;5088644;28;20021;-85
2022/01/26 04:51:20;;;;;;;;;;;;;;;;;;5064592;28;20393;-85
2022/01/26 04:53:46;;;;;;;;;;;;;;;;;;5080063;28;20401;-83
2022/01/26 04:56:14;;;;;;;;;;;;;;;;;;5082616;28;19962;-83
2022/01/26 04:58:40;;;;;;;;;;;;;;;;;;5084094;28;19952;-83
2022/01/26 05:01:07;;;;;;;;;;;;;;;;;;5085821;28;19955;-88
2022/01/26 05:03:33;;;;;;;;;;;;;;;;;;5085215;28;20731;-89
2022/01/26 05:05:59;;;;;;;;;;;;;;;;;;5086852;28;19959;-84
2022/01/26 05:08:26;;;;;;;;;;;;;;;;;;5062200;28;19916;-86
2022/01/26 05:10:52;;;;;;;;;;;;;;;;;;5070658;28;20528;-82
2022/01/26 05:13:18;;;;;;;;;;;;;;;;;;5082685;28;19927;-82
2022/01/26 05:15:44;;;;;;;;;;;;;;;;;;5082246;28;20451;-88
2022/01/26 05:18:10;;;;;;;;;;;;;;;;;;5085609;28;20458;-82
2022/01/26 05:20:37;;;;;;;;;;;;;;;;;;5090430;28;19959;-86
2022/01/26 05:23:03;;;;;;;;;;;;;;;;;;5087669;28;19963;-85
2022/01/26 05:25:29;;;;;;;;;;;;;;;;;;5083667;28;19955;-87
2022/01/26 05:27:55;;;;;;;;;;;;;;;;;;5085464;28;19955;-86
2022/01/26 05:30:21;;;;;;;;;;;;;;;;;;5084332;28;19951;-85
2022/01/26 05:32:48;;;;;;;;;;;;;;;;;;5088995;28;19959;-86
2022/01/26 05:35:14;;;;;;;;;;;;;;;;;;5086278;28;19956;-86
2022/01/26 05:37:40;;;;;;;;;;;;;;;;;;5088004;28;19975;-87
2022/01/26 05:40:06;;;;;;;;;;;;;;;;;;5081996;28;19952;-86
2022/01/26 05:42:35;;;;;;;;;;;;;;;;;;5084489;28;19970;-87
2022/01/26 05:45:04;;;;;;;;;;;;;;;;;;5085500;28;20008;-87
2022/01/26 05:47:32;;;;;;;;;;;;;;;;;;5086303;28;20016;-84
2022/01/26 05:49:59;;;;;;;;;;;;;;;;;;5085860;28;20371;-85
2022/01/26 05:52:25;;;;;;;;;;;;;;;;;;5089541;28;19958;-83
2022/01/26 05:54:51;;;;;;;;;;;;;;;;;;5088348;28;19952;-88
2022/01/26 05:57:17;;;;;;;;;;;;;;;;;;5088165;28;19951;-87
2022/01/26 05:59:43;;;;;;;;;;;;;;;;;;5086720;28;19952;-87
2022/01/26 06:02:10;;;;;;;;;;;;;;;;;;5084399;28;20024;-87
2022/01/26 06:04:36;;;;;;;;;;;;;;;;;;5085278;28;19948;-88
2022/01/26 06:07:02;;;;;;;;;;;;;;;;;;5086287;28;20033;-87
2022/01/26 06:09:28;;;;;;;;;;;;;;;;;;5084471;28;20005;-88
2022/01/26 06:11:54;;;;;;;;;;;;;;;;;;5087205;28;19948;-87
2022/01/26 06:14:21;;;;;;;;;;;;;;;;;;5085660;28;19967;-88
2022/01/26 06:16:47;;;;;;;;;;;;;;;;;;5086273;28;19947;-88
2022/01/26 06:19:13;;;;;;;;;;;;;;;;;;5080597;28;19955;-88
2022/01/26 06:21:39;;;;;;;;;;;;;;;;;;5090062;28;19982;-88
2022/01/26 06:24:06;;;;;;;;;;;;;;;;;;5089837;28;19961;-88
2022/01/26 06:26:32;;;;;;;;;;;;;;;;;;5087333;28;19955;-89
2022/01/26 06:28:58;;;;;;;;;;;;;;;;;;5090809;28;19963;-87
2022/01/26 06:31:27;;;;;;;;;;;;;;;;;;5085207;28;19944;-89
2022/01/26 06:33:53;;;;;;;;;;;;;;;;;;5086975;28;19912;-89
2022/01/26 06:36:19;;;;;;;;;;;;;;;;;;5082704;28;19921;-89
2022/01/26 06:38:46;;;;;;;;;;;;;;;;;;5092138;28;19940;-89
2022/01/26 06:41:12;;;;;;;;;;;;;;;;;;5089970;28;19988;-88
2022/01/26 06:43:49;;;;;;;;;;;;;;;;;;5089324;28;19948;-87
2022/01/26 06:46:33;;;;;;;;;;;;;;;;;;5084684;28;19943;-87
2022/01/26 06:49:28;;;;;;;;;;;;;;;;;;5087412;28;19940;-88
2022/01/26 06:51:46;;;;;;;;;;;;;;;;;;5082424;28;21159;-87
2022/01/26 06:54:12;;;;;;;;;;;;;;;;;;5091018;28;20364;-87
2022/01/26 06:56:38;;;;;;;;;;;;;;;;;;5072280;28;19948;-87
2022/01/26 06:59:04;;;;;;;;;;;;;;;;;;5087106;28;20016;-85
2022/01/26 07:01:31;;;;;;;;;;;;;;;;;;5089465;28;19968;-87
2022/01/26 07:03:57;;;;;;;;;;;;;;;;;;5088554;28;20369;-86
2022/01/26 07:06:23;;;;;;;;;;;;;;;;;;5088736;28;19955;-83
2022/01/26 07:08:49;;;;;;;;;;;;;;;;;;5068234;28;20407;-81
2022/01/26 07:11:15;;;;;;;;;;;;;;;;;;5082820;28;19946;-82
2022/01/26 07:13:42;;;;;;;;;;;;;;;;;;5088489;28;19944;-82
2022/01/26 07:21:38;;;;;;;;;;;;;;;;;;5086535;28;20240;-82
2022/01/26 07:24:04;;;;;;;;;;;;;;;;;;5080152;28;20023;-83
2022/01/26 07:26:31;;;;;;;;;;;;;;;;;;5085285;28;20020;-83
2022/01/26 07:28:57;;;;;;;;;;;;;;;;;;5095219;28;19960;-84
2022/01/26 07:31:23;;;;;;;;;;;;;;;;;;5088059;28;19966;-83
2022/01/26 07:33:55;;;;;;;;;;;;;;;;;;5088024;28;20014;-83
2022/01/26 07:36:21;;;;;;;;;;;;;;;;;;5082722;28;19948;-82
2022/01/26 07:38:52;;;;;;;;;;;;;;;;;;5085193;28;20461;-83
2022/01/26 07:41:18;;;;;;;;;;;;;;;;;;5067651;28;19967;-81
2022/01/26 07:43:44;;;;;;;;;;;;;;;;;;5068491;28;19964;-82
2022/01/26 07:46:10;;;;;;;;;;;;;;;;;;5066574;28;19916;-81
2022/01/26 07:48:37;;;;;;;;;;;;;;;;;;5068330;28;19993;-80
2022/01/26 07:51:03;;;;;;;;;;;;;;;;;;5085180;28;20028;-83
2022/01/26 07:53:29;;;;;;;;;;;;;;;;;;5065519;28;19959;-83
2022/01/26 07:55:56;;;;;;;;;;;;;;;;;;5069744;28;19924;-82
2022/01/26 07:58:22;;;;;;;;;;;;;;;;;;5084829;28;20376;-83
2022/01/26 08:00:48;;;;;;;;;;;;;;;;;;5084287;28;19955;-83
2022/01/26 08:03:15;;;;;;;;;;;;;;;;;;5086815;28;20461;-82
2022/01/26 08:05:41;;;;;;;;;;;;;;;;;;5088354;28;19962;-83
2022/01/26 08:08:07;;;;;;;;;;;;;;;;;;5053780;28;19963;-84
2022/01/26 08:10:33;;;;;;;;;;;;;;;;;;5088185;28;19947;-83
2022/01/26 08:13:00;;;;;;;;;;;;;;;;;;5088654;28;19951;-83
2022/01/26 08:15:26;;;;;;;;;;;;;;;;;;5064428;28;20411;-83
2022/01/26 08:17:52;;;;;;;;;;;;;;;;;;5086573;28;19990;-83
2022/01/26 08:20:20;;;;;;;;;;;;;;;;;;5082600;28;19955;-83
2022/01/26 08:22:47;;;;;;;;;;;;;;;;;;5083454;28;20345;-83
2022/01/26 08:25:13;;;;;;;;;;;;;;;;;;5086923;28;19956;-83
2022/01/26 08:27:47;;;;;;;;;;;;;;;;;;5083613;28;19966;-83
2022/01/26 08:30:17;;;;;;;;;;;;;;;;;;5086308;28;20005;-84
2022/01/26 08:32:43;;;;;;;;;;;;;;;;;;5088301;28;20373;-84
2022/01/26 08:35:10;;;;;;;;;;;;;;;;;;5060546;28;19944;-84
2022/01/26 08:37:36;;;;;;;;;;;;;;;;;;5066291;28;20503;-83
2022/01/26 08:40:02;;;;;;;;;;;;;;;;;;5083861;28;19998;-83
2022/01/26 08:42:28;;;;;;;;;;;;;;;;;;5067493;28;19955;-84
2022/01/26 08:44:54;;;;;;;;;;;;;;;;;;5068736;28;19955;-83
2022/01/26 08:47:20;;;;;;;;;;;;;;;;;;5067176;28;20364;-84
2022/01/26 08:49:47;;;;;;;;;;;;;;;;;;5081626;28;19944;-84
2022/01/26 08:52:13;;;;;;;;;;;;;;;;;;5083349;28;19955;-84
2022/01/26 08:54:39;;;;;;;;;;;;;;;;;;5085251;28;19959;-84
2022/01/26 08:57:05;;;;;;;;;;;;;;;;;;5084347;28;19985;-81
2022/01/26 08:59:31;;;;;;;;;;;;;;;;;;5085778;28;19969;-84
2022/01/26 09:01:58;;;;;;;;;;;;;;;;;;5084838;28;19989;-84
2022/01/26 09:04:24;;;;;;;;;;;;;;;;;;5064923;28;19952;-83
2022/01/26 09:06:56;;;;;;;;;;;;;;;;;;5083797;28;19951;-83
2022/01/26 09:09:22;;;;;;;;;;;;;;;;;;5061399;28;20309;-83
2022/01/26 09:11:49;;;;;;;;;;;;;;;;;;5085999;28;20355;-83
2022/01/26 09:14:19;;;;;;;;;;;;;;;;;;5084194;28;19940;-82
2022/01/26 09:16:45;;;;;;;;;;;;;;;;;;5082497;28;20572;-83
2022/01/26 09:19:26;;;;;;;;;;;;;;;;;;5080552;28;19949;-84
2022/01/26 09:21:52;;;;;;;;;;;;;;;;;;5085490;28;19995;-83
2022/01/26 09:24:19;;;;;;;;;;;;;;;;;;5067293;28;19947;-81
2022/01/26 09:26:45;;;;;;;;;;;;;;;;;;5083476;28;19959;-82
2022/01/26 09:29:14;;;;;;;;;;;;;;;;;;5072358;28;19962;-82
2022/01/26 09:31:47;;;;;;;;;;;;;;;;;;5063943;28;21083;-82
2022/01/26 09:34:16;;;;;;;;;;;;;;;;;;5043786;28;19966;-80
2022/01/26 09:36:43;;;;;;;;;;;;;;;;;;5082568;28;20465;-81
2022/01/26 09:39:09;;;;;;;;;;;;;;;;;;5084003;28;19989;-80
2022/01/26 09:41:35;;;;;;;;;;;;;;;;;;5086095;28;19955;-81
2022/01/26 09:44:02;;;;;;;;;;;;;;;;;;5084889;28;19959;-80
2022/01/26 09:46:28;;;;;;;;;;;;;;;;;;5083442;28;19967;-81
2022/01/26 09:48:55;;;;;;;;;;;;;;;;;;5082483;28;19952;-82
2022/01/26 09:51:21;;;;;;;;;;;;;;;;;;5066861;28;20341;-81
2022/01/26 09:53:51;;;;;;;;;;;;;;;;;;5086187;28;20000;-82
2022/01/26 09:56:18;;;;;;;;;;;;;;;;;;5083681;28;20393;-80
2022/01/26 09:58:47;;;;;;;;;;;;;;;;;;5085083;28;20001;-83
2022/01/26 10:01:13;;;;;;;;;;;;;;;;;;5063561;28;19956;-81
2022/01/26 10:03:39;;;;;;;;;;;;;;;;;;5084799;28;20005;-81
2022/01/26 10:06:07;;;;;;;;;;;;;;;;;;5078068;28;19981;-79
2022/01/26 10:08:55;;;;;;;;;;;;;;;;;;5085199;28;19955;-81
2022/01/26 10:17:21;;;;;;;;;;;;;;;;;;5081148;28;19927;-82
2022/01/26 10:19:17;;;;;;;;;;;;;;;;;;5079222;28;19952;-82
2022/01/26 10:21:43;;;;;;;;;;;;;;;;;;5084636;28;20512;-82
2022/01/26 10:24:09;;;;;;;;;;;;;;;;;;5083030;28;19944;-82
2022/01/26 10:26:35;;;;;;;;;;;;;;;;;;5059881;28;19917;-82
2022/01/26 10:29:02;;;;;;;;;;;;;;;;;;5084370;28;20388;-82
2022/01/26 10:31:28;;;;;;;;;;;;;;;;;;5084035;28;19952;-82
2022/01/26 10:33:54;;;;;;;;;;;;;;;;;;5085621;28;19951;-82
2022/01/26 10:36:21;;;;;;;;;;;;;;;;;;5082867;28;19959;-82
2022/01/26 10:38:47;;;;;;;;;;;;;;;;;;5085646;28;19962;-82
2022/01/26 10:41:13;;;;;;;;;;;;;;;;;;5062974;28;19963;-85
2022/01/26 10:43:39;;;;;;;;;;;;;;;;;;5086679;28;20003;-85
2022/01/26 10:46:08;;;;;;;;;;;;;;;;;;5083223;28;19956;-83
2022/01/26 10:48:43;;;;;;;;;;;;;;;;;;5075488;28;19912;-84
2022/01/26 10:53:48;;;;;;;;;;;;;;;;;;5069874;28;19974;-83
2022/01/26 10:56:15;;;;;;;;;;;;;;;;;;5087487;28;19938;-84
2022/01/26 10:58:41;;;;;;;;;;;;;;;;;;5084526;28;19966;-82
2022/01/26 11:01:07;;;;;;;;;;;;;;;;;;5079624;28;19943;-82
2022/01/26 11:03:33;;;;;;;;;;;;;;;;;;5084590;28;19967;-84
2022/01/26 11:06:00;;;;;;;;;;;;;;;;;;5089142;28;20483;-84
2022/01/26 11:08:29;;;;;;;;;;;;;;;;;;5070174;28;19923;-82
2022/01/26 11:10:56;;;;;;;;;;;;;;;;;;5068823;28;19924;-85
2022/01/26 11:13:22;;;;;;;;;;;;;;;;;;5090498;28;20653;-85
2022/01/26 11:15:49;;;;;;;;;;;;;;;;;;5089302;28;19916;-81
2022/01/26 11:18:20;;;;;;;;;;;;;;;;;;5086989;28;20448;-81
2022/01/26 11:20:49;;;;;;;;;;;;;;;;;;5080670;28;19951;-81
2022/01/26 11:23:15;;;;;;;;;;;;;;;;;;5088192;28;20357;-81
2022/01/26 11:25:42;;;;;;;;;;;;;;;;;;5089367;28;19952;-81
2022/01/26 11:28:08;;;;;;;;;;;;;;;;;;5087151;28;20560;-82
2022/01/26 11:30:34;;;;;;;;;;;;;;;;;;5066424;28;19997;-82
2022/01/26 11:33:00;;;;;;;;;;;;;;;;;;5079288;28;19981;-81
2022/01/26 11:35:27;;;;;;;;;;;;;;;;;;5087782;28;20365;-80
2022/01/26 11:37:59;;;;;;;;;;;;;;;;;;5088861;28;20008;-82
2022/01/26 11:46:03;;;;;;;;;;;;;;;;;;5077913;28;19943;-82
2022/01/26 11:48:29;;;;;;;;;;;;;;;;;;5086512;28;20385;-82
2022/01/26 11:50:55;;;;;;;;;;;;;;;;;;5087596;28;19955;-83
2022/01/26 11:53:21;;;;;;;;;;;;;;;;;;5085131;28;20440;-84
2022/01/26 11:56:00;;;;;;;;;;;;;;;;;;5087922;28;19947;-83
2022/01/26 11:58:27;;;;;;;;;;;;;;;;;;5086350;28;20008;-84
2022/01/26 12:00:58;;;;;;;;;;;;;;;;;;5087000;28;19979;-83
2022/01/26 12:03:24;;;;;;;;;;;;;;;;;;5086705;28;19959;-83
2022/01/26 12:05:54;;;;;;;;;;;;;;;;;;5082068;28;19916;-83
2022/01/26 12:08:21;;;;;;;;;;;;;;;;;;5063300;28;20391;-82
2022/01/26 12:10:47;;;;;;;;;;;;;;;;;;5064820;28;19956;-83
2022/01/26 12:13:17;;;;;;;;;;;;;;;;;;5067089;28;19960;-83
2022/01/26 12:15:54;;;;;;;;;;;;;;;;;;5068443;28;19967;-82
2022/01/26 12:34:39;;;;;;;;;;;;;;;;;;5084161;28;20316;-82
2022/01/26 12:37:13;;;;;;;;;;;;;;;;;;5087045;28;19967;-83
2022/01/26 12:42:40;;;;;;;;;;;;;;;;;;5079238;28;19963;-82
2022/01/26 12:45:07;;;;;;;;;;;;;;;;;;5058180;28;19920;-81
2022/01/26 12:47:33;;;;;;;;;;;;;;;;;;5082103;28;20673;-83
2022/01/26 12:49:59;;;;;;;;;;;;;;;;;;5085305;28;20457;-83
2022/01/26 12:52:25;;;;;;;;;;;;;;;;;;5081038;28;19962;-83
2022/01/26 12:54:52;;;;;;;;;;;;;;;;;;5082099;28;19963;-83
2022/01/26 12:57:18;;;;;;;;;;;;;;;;;;5083931;28;19967;-83
2022/01/26 12:59:44;;;;;;;;;;;;;;;;;;5085886;28;20028;-81
2022/01/26 13:02:10;;;;;;;;;;;;;;;;;;5084132;28;20028;-82
2022/01/26 13:04:36;;;;;;;;;;;;;;;;;;5085188;28;19984;-83
2022/01/26 13:07:03;;;;;;;;;;;;;;;;;;5087030;28;19966;-82
2022/01/26 13:09:29;;;;;;;;;;;;;;;;;;5085110;28;20042;-83
2022/01/26 13:11:55;;;;;;;;;;;;;;;;;;5066763;28;19960;-83
2022/01/26 13:14:24;;;;;;;;;;;;;;;;;;5085556;28;20301;-84
2022/01/26 13:16:51;;;;;;;;;;;;;;;;;;5085692;28;19975;-81
2022/01/26 13:19:36;;;;;;;;;;;;;;;;;;5081530;28;19952;-82
2022/01/26 13:24:59;;;;;;;;;;;;;;;;;;5056167;28;21223;-83
2022/01/26 13:30:11;;;;;;;;;;;;;;;;;;5085857;28;19952;-81
2022/01/26 13:33:36;;;;;;;;;;;;;;;;;;5081848;28;20034;-82
2022/01/26 13:40:48;;;;;;;;;;;;;;;;;;5080128;28;20348;-82
2022/01/26 13:43:41;;;;;;;;;;;;;;;;;;5083198;28;19967;-82
2022/01/26 13:59:58;;;;;;;;;;;;;;;;;;5041129;28;19973;-81
2022/01/26 14:02:28;;;;;;;;;;;;;;;;;;5041442;28;19925;-82
2022/01/26 14:04:58;;;;;;;;;;;;;;;;;;5066481;28;20353;-83
2022/01/26 14:07:24;;;;;;;;;;;;;;;;;;5063587;28;20547;-84
2022/01/26 14:09:50;;;;;;;;;;;;;;;;;;5064098;28;19960;-83
2022/01/26 14:12:21;;;;;;;;;;;;;;;;;;5063376;28;20382;-83
2022/01/26 14:14:52;;;;;;;;;;;;;;;;;;5067137;28;20024;-83
2022/01/26 14:17:28;;;;;;;;;;;;;;;;;;5063043;28;19963;-84
2022/01/26 14:20:29;;;;;;;;;;;;;;;;;;5065151;28;19963;-83
2022/01/26 14:25:45;;;;;;;;;;;;;;;;;;5063613;28;19960;-83
2022/01/26 14:28:07;;;;;;;;;;;;;;;;;;5062790;28;19962;-82
2022/01/26 14:33:26;;;;;;;;;;;;;;;;;;5065216;28;19952;-82
2022/01/26 15:48:42;;;;;;;;;;;;;;;;;;5086264;28;19967;-78
2022/01/26 15:59:03;;;;;;;;;;;;;;;;;;5085134;28;19967;-77
2022/01/26 18:17:30;;;;;;;;;;;;;;;;;;5067064;28;19936;-80
2022/01/26 18:49:32;;;;;;;;;;;;;;;;;;5067466;28;20108;-80
2022/01/26 18:51:59;;;;;;;;;;;;;;;;;;5065526;28;20013;-80
2022/01/26 18:54:25;;;;;;;;;;;;;;;;;;5075480;28;19973;-80
2022/01/26 18:56:51;;;;;;;;;;;;;;;;;;5090056;28;20047;-80
2022/01/26 18:59:17;;;;;;;;;;;;;;;;;;5087562;28;19951;-80
2022/01/26 19:01:44;;;;;;;;;;;;;;;;;;5090583;28;20033;-80
2022/01/26 19:04:10;;;;;;;;;;;;;;;;;;5086794;28;20064;-79
2022/01/26 19:06:42;;;;;;;;;;;;;;;;;;5090106;28;20012;-80
2022/01/26 19:09:08;;;;;;;;;;;;;;;;;;5088441;28;19982;-79
2022/01/26 19:11:34;;;;;;;;;;;;;;;;;;5069459;28;20449;-80
2022/01/26 19:14:03;;;;;;;;;;;;;;;;;;5088195;28;19947;-82
2022/01/26 19:26:42;;;;;;;;;;;;;;;;;;5084518;28;21249;-80
2022/01/26 19:29:22;;;;;;;;;;;;;;;;;;5087312;28;19916;-80
2022/01/26 19:32:33;;;;;;;;;;;;;;;;;;5080446;28;22166;-79
2022/01/26 19:46:10;;;;;;;;;;;;;;;;;;5065254;28;20009;-80
2022/01/26 19:51:05;;;;;;;;;;;;;;;;;;5085501;28;19943;-83
2022/01/26 19:53:32;;;;;;;;;;;;;;;;;;5085058;28;20536;-84
2022/01/26 19:55:58;;;;;;;;;;;;;;;;;;5085900;28;19920;-86
2022/01/26 19:58:25;;;;;;;;;;;;;;;;;;5088549;28;19948;-87
2022/01/26 20:00:51;;;;;;;;;;;;;;;;;;5088837;28;20344;-86
2022/01/26 20:03:17;;;;;;;;;;;;;;;;;;5087590;28;19971;-86
2022/01/26 20:05:44;;;;;;;;;;;;;;;;;;5086475;28;20005;-86
2022/01/26 20:08:26;;;;;;;;;;;;;;;;;;5086125;28;19952;-85
2022/01/26 20:10:57;;;;;;;;;;;;;;;;;;5087770;28;20395;-84
2022/01/26 20:13:45;;;;;;;;;;;;;;;;;;5087142;28;19963;-85
2022/01/26 20:16:10;;;;;;;;;;;;;;;;;;5082321;28;19985;-87
2022/01/26 20:18:36;;;;;;;;;;;;;;;;;;5070179;28;19980;-87
2022/01/26 20:21:03;;;;;;;;;;;;;;;;;;5085481;28;20040;-87
2022/01/26 20:23:32;;;;;;;;;;;;;;;;;;5069094;28;19971;-87
2022/01/26 20:26:00;;;;;;;;;;;;;;;;;;5089961;28;19989;-87
2022/01/26 20:28:31;;;;;;;;;;;;;;;;;;5087711;28;19966;-84
2022/01/26 20:30:59;;;;;;;;;;;;;;;;;;5068219;28;19920;-87
2022/01/26 20:33:25;;;;;;;;;;;;;;;;;;5085573;28;20287;-87
2022/01/26 20:35:51;;;;;;;;;;;;;;;;;;5088840;28;19955;-87
2022/01/26 20:38:17;;;;;;;;;;;;;;;;;;5059847;28;19966;-86
2022/01/26 20:40:43;;;;;;;;;;;;;;;;;;5090249;28;19963;-91
2022/01/26 20:43:10;;;;;;;;;;;;;;;;;;5089835;28;19955;-90
2022/01/26 20:45:37;;;;;;;;;;;;;;;;;;5028815;28;19916;-87
2022/01/26 20:48:04;;;;;;;;;;;;;;;;;;5075187;28;19912;-88
2022/01/26 20:50:33;;;;;;;;;;;;;;;;;;5051442;28;19938;-89
2022/01/26 20:52:59;;;;;;;;;;;;;;;;;;5050500;28;19912;-87
2022/01/26 20:55:26;;;;;;;;;;;;;;;;;;5040605;28;19959;-87
2022/01/26 20:57:52;;;;;;;;;;;;;;;;;;5077346;28;19947;-85
2022/01/26 21:00:19;;;;;;;;;;;;;;;;;;5087350;28;19970;-86
2022/01/26 21:02:49;;;;;;;;;;;;;;;;;;5088835;28;19930;-87
2022/01/26 21:05:15;;;;;;;;;;;;;;;;;;5087200;28;19946;-87
2022/01/26 21:07:43;;;;;;;;;;;;;;;;;;5086687;28;19924;-86
2022/01/26 21:10:13;;;;;;;;;;;;;;;;;;5079389;28;19921;-88
2022/01/26 21:12:43;;;;;;;;;;;;;;;;;;5081949;28;20005;-84
2022/01/26 21:15:10;;;;;;;;;;;;;;;;;;5071276;28;19920;-85
2022/01/26 21:17:39;;;;;;;;;;;;;;;;;;5066296;28;19924;-86
2022/01/26 21:20:12;;;;;;;;;;;;;;;;;;5070971;28;20003;-87
2022/01/26 21:22:39;;;;;;;;;;;;;;;;;;5060532;28;19917;-89
2022/01/26 21:25:06;;;;;;;;;;;;;;;;;;5066546;28;19980;-88
2022/01/26 21:27:33;;;;;;;;;;;;;;;;;;5066479;28;19924;-88
2022/01/26 21:29:59;;;;;;;;;;;;;;;;;;5063319;28;19988;-90
2022/01/26 21:32:31;;;;;;;;;;;;;;;;;;5065167;28;19977;-92
2022/01/26 21:34:58;;;;;;;;;;;;;;;;;;5071720;28;19943;-94
2022/01/26 21:37:37;;;;;;;;;;;;;;;;;;5024865;28;19943;-92
2022/01/26 21:40:03;;;;;;;;;;;;;;;;;;5068968;28;19925;-90
2022/01/26 21:42:29;;;;;;;;;;;;;;;;;;5066750;28;19964;-85
2022/01/26 21:44:55;;;;;;;;;;;;;;;;;;5067241;28;19974;-87
2022/01/26 21:47:22;;;;;;;;;;;;;;;;;;5063938;28;20025;-86
2022/01/26 21:49:51;;;;;;;;;;;;;;;;;;5064594;28;19960;-89
2022/01/26 21:52:23;;;;;;;;;;;;;;;;;;5055748;28;19924;-87
2022/01/26 21:54:57;;;;;;;;;;;;;;;;;;5060358;28;19927;-85
2022/01/26 21:57:30;;;;;;;;;;;;;;;;;;5057778;28;20489;-93
2022/01/26 21:59:57;;;;;;;;;;;;;;;;;;5074456;28;19913;-86
2022/01/26 22:02:24;;;;;;;;;;;;;;;;;;5059611;28;20375;-88
2022/01/26 22:04:53;;;;;;;;;;;;;;;;;;5048784;28;19924;-88
2022/01/26 22:07:22;;;;;;;;;;;;;;;;;;5071884;28;20334;-86
2022/01/26 22:09:52;;;;;;;;;;;;;;;;;;5026308;28;19924;-93
2022/01/26 22:12:19;;;;;;;;;;;;;;;;;;5061397;28;19923;-89
2022/01/26 22:14:50;;;;;;;;;;;;;;;;;;5067081;28;19921;-89
2022/01/26 22:17:23;;;;;;;;;;;;;;;;;;5039252;28;20323;-89
2022/01/26 22:20:03;;;;;;;;;;;;;;;;;;;;;
2022/01/26 22:22:32;;;;;;;;;;;;;;;;;;5070595;28;19917;-90
2022/01/26 22:25:02;;;;;;;;;;;;;;;;;;5046801;28;19921;-94
2022/01/26 22:27:33;;;;;;;;;;;;;;;;;;5066019;28;19970;-90
2022/01/26 22:30:00;;;;;;;;;;;;;;;;;;5069985;28;19916;-90
2022/01/26 22:32:28;;;;;;;;;;;;;;;;;;5057489;28;19921;-90
2022/01/26 22:35:03;;;;;;;;;;;;;;;;;;5066698;28;20004;-89
2022/01/26 22:37:33;;;;;;;;;;;;;;;;;;5067968;28;21141;-88
2022/01/26 22:40:03;;;;;;;;;;;;;;;;;;5048388;28;19970;-88
2022/01/26 22:42:32;;;;;;;;;;;;;;;;;;5047753;28;19995;-87
2022/01/26 22:45:05;;;;;;;;;;;;;;;;;;5034537;28;19947;-90
2022/01/26 22:47:32;;;;;;;;;;;;;;;;;;5063372;28;19924;-87
2022/01/26 22:49:59;;;;;;;;;;;;;;;;;;5042678;28;19920;-87
2022/01/26 22:52:32;;;;;;;;;;;;;;;;;;5045721;28;19918;-87
2022/01/26 22:54:58;;;;;;;;;;;;;;;;;;5065152;28;21460;-87
2022/01/26 22:57:24;;;;;;;;;;;;;;;;;;5062563;28;19963;-85
2022/01/26 22:59:51;;;;;;;;;;;;;;;;;;5064828;28;19998;-86
2022/01/26 23:05:01;;;;;;;;;;;;;;;;;;5071657;28;19956;-88
2022/01/26 23:07:28;;;;;;;;;;;;;;;;;;5070197;28;19981;-87
2022/01/26 23:09:54;;;;;;;;;;;;;;;;;;5069071;28;20017;-88
2022/01/26 23:12:20;;;;;;;;;;;;;;;;;;5064863;28;19970;-87
2022/01/26 23:14:46;;;;;;;;;;;;;;;;;;5068981;28;19944;-87
2022/01/26 23:17:12;;;;;;;;;;;;;;;;;;5066674;28;20455;-87
2022/01/26 23:19:38;;;;;;;;;;;;;;;;;;5067068;28;19959;-86
2022/01/26 23:22:05;;;;;;;;;;;;;;;;;;5066077;28;19952;-86
2022/01/26 23:24:38;;;;;;;;;;;;;;;;;;5065084;28;20459;-85
2022/01/26 23:27:14;;;;;;;;;;;;;;;;;;5067964;28;20398;-87
2022/01/26 23:30:17;;;;;;;;;;;;;;;;;;5066451;28;20326;-84
2022/01/26 23:32:52;;;;;;;;;;;;;;;;;;5066397;28;19959;-85
2022/01/26 23:38:06;;;;;;;;;;;;;;;;;;5066061;28;19966;-85
